sensor_id;sensor_type;location;lat;lon;timestamp;P1;durP1;ratioP1;P2;durP2;ratioP2
36833;SDS011;48003;52.084;5.224;2024-01-10T00:01:23;7.7;;;2.6;;
36833;SDS011;48003;52.084;5.224;2024-01-10T00:04:35;6.1;;;2.6;;
36833;SDS011;48003;52.084;5.224;2024-01-10T00:06:11;4.8;;;2.1;;
36833;SDS011;48003;52.084;5.224;2024-01-10T00:07:48;5.5;;;2.7;;
36833;SDS011;48003;52.084;5.224;2024-01-10T00:11:03;6.8;;;2.6;;
36833;SDS011;48003;52.084;5.224;2024-01-10T00:12:39;4.41;;;2.5;;
36833;SDS011;48003;52.084;5.224;2024-01-10T00:14:15;8.9;;;3.0;;
36833;SDS011;48003;52.084;5.224;2024-01-10T00:17:27;4.5;;;2.5;;
36833;SDS011;48003;52.084;5.224;2024-01-10T00:19:03;6.1;;;2.9;;
36833;SDS011;48003;52.084;5.224;2024-01-10T00:20:42;5.11;;;2.6;;
36833;SDS011;48003;52.084;5.224;2024-01-10T00:22:19;4.7;;;2.31;;
36833;SDS011;48003;52.084;5.224;2024-01-10T00:25:32;5.2;;;2.7;;
36833;SDS011;48003;52.084;5.224;2024-01-10T00:27:08;5.2;;;2.8;;
36833;SDS011;48003;52.084;5.224;2024-01-10T00:28:44;5.0;;;3.0;;
36833;SDS011;48003;52.084;5.224;2024-01-10T00:31:58;4.7;;;2.5;;
36833;SDS011;48003;52.084;5.224;2024-01-10T00:33:34;5.4;;;2.7;;
36833;SDS011;48003;52.084;5.224;2024-01-10T00:35:10;6.6;;;2.6;;
36833;SDS011;48003;52.084;5.224;2024-01-10T00:38:22;5.11;;;2.6;;
36833;SDS011;48003;52.084;5.224;2024-01-10T00:39:58;5.3;;;2.8;;
36833;SDS011;48003;52.084;5.224;2024-01-10T00:41:34;5.2;;;2.8;;
36833;SDS011;48003;52.084;5.224;2024-01-10T00:43:10;6.0;;;3.2;;
36833;SDS011;48003;52.084;5.224;2024-01-10T00:46:22;5.8;;;3.0;;
36833;SDS011;48003;52.084;5.224;2024-01-10T00:47:59;5.6;;;2.7;;
36833;SDS011;48003;52.084;5.224;2024-01-10T00:49:35;6.1;;;2.6;;
36833;SDS011;48003;52.084;5.224;2024-01-10T00:52:47;5.2;;;2.8;;
36833;SDS011;48003;52.084;5.224;2024-01-10T00:54:23;4.8;;;2.6;;
36833;SDS011;48003;52.084;5.224;2024-01-10T00:55:59;4.8;;;2.7;;
36833;SDS011;48003;52.084;5.224;2024-01-10T00:59:11;5.11;;;2.6;;
36833;SDS011;48003;52.084;5.224;2024-01-10T01:00:47;5.9;;;2.8;;
36833;SDS011;48003;52.084;5.224;2024-01-10T01:02:23;6.6;;;3.0;;
36833;SDS011;48003;52.084;5.224;2024-01-10T01:05:39;4.7;;;2.7;;
36833;SDS011;48003;52.084;5.224;2024-01-10T01:07:15;4.91;;;2.8;;
36833;SDS011;48003;52.084;5.224;2024-01-10T01:08:51;6.0;;;2.8;;
36833;SDS011;48003;52.084;5.224;2024-01-10T01:10:27;7.7;;;3.0;;
36833;SDS011;48003;52.084;5.224;2024-01-10T01:13:40;5.5;;;2.9;;
36833;SDS011;48003;52.084;5.224;2024-01-10T01:15:16;5.11;;;2.9;;
36833;SDS011;48003;52.084;5.224;2024-01-10T01:16:52;5.9;;;2.8;;
36833;SDS011;48003;52.084;5.224;2024-01-10T01:20:05;5.0;;;2.8;;
36833;SDS011;48003;52.084;5.224;2024-01-10T01:21:42;5.6;;;3.0;;
36833;SDS011;48003;52.084;5.224;2024-01-10T01:23:18;5.5;;;3.1;;
36833;SDS011;48003;52.084;5.224;2024-01-10T01:26:30;5.9;;;3.2;;
36833;SDS011;48003;52.084;5.224;2024-01-10T01:28:06;4.91;;;2.7;;
36833;SDS011;48003;52.084;5.224;2024-01-10T01:29:43;6.5;;;2.8;;
36833;SDS011;48003;52.084;5.224;2024-01-10T01:31:19;6.4;;;2.7;;
36833;SDS011;48003;52.084;5.224;2024-01-10T01:34:31;6.2;;;3.2;;
36833;SDS011;48003;52.084;5.224;2024-01-10T01:36:07;6.4;;;3.3;;
36833;SDS011;48003;52.084;5.224;2024-01-10T01:37:43;7.4;;;3.3;;
36833;SDS011;48003;52.084;5.224;2024-01-10T01:40:56;6.5;;;3.1;;
36833;SDS011;48003;52.084;5.224;2024-01-10T01:42:32;6.3;;;3.1;;
36833;SDS011;48003;52.084;5.224;2024-01-10T01:44:08;6.7;;;3.1;;
36833;SDS011;48003;52.084;5.224;2024-01-10T01:47:20;8.1;;;2.9;;
36833;SDS011;48003;52.084;5.224;2024-01-10T01:48:56;7.6;;;3.3;;
36833;SDS011;48003;52.084;5.224;2024-01-10T01:50:32;6.2;;;3.4;;
36833;SDS011;48003;52.084;5.224;2024-01-10T01:52:08;6.3;;;2.9;;
36833;SDS011;48003;52.084;5.224;2024-01-10T01:55:23;7.6;;;3.0;;
36833;SDS011;48003;52.084;5.224;2024-01-10T01:57:00;5.6;;;3.0;;
36833;SDS011;48003;52.084;5.224;2024-01-10T01:58:36;5.4;;;3.0;;
36833;SDS011;48003;52.084;5.224;2024-01-10T02:01:49;7.4;;;2.8;;
36833;SDS011;48003;52.084;5.224;2024-01-10T02:03:26;4.7;;;2.8;;
36833;SDS011;48003;52.084;5.224;2024-01-10T02:05:02;4.8;;;2.7;;
36833;SDS011;48003;52.084;5.224;2024-01-10T02:08:15;5.3;;;2.8;;
36833;SDS011;48003;52.084;5.224;2024-01-10T02:09:51;5.4;;;2.9;;
36833;SDS011;48003;52.084;5.224;2024-01-10T02:11:28;4.61;;;3.0;;
36833;SDS011;48003;52.084;5.224;2024-01-10T02:13:04;5.6;;;3.0;;
36833;SDS011;48003;52.084;5.224;2024-01-10T02:16:16;6.1;;;3.0;;
36833;SDS011;48003;52.084;5.224;2024-01-10T02:17:52;7.5;;;2.9;;
36833;SDS011;48003;52.084;5.224;2024-01-10T02:19:28;5.2;;;2.9;;
36833;SDS011;48003;52.084;5.224;2024-01-10T02:22:43;6.9;;;2.9;;
36833;SDS011;48003;52.084;5.224;2024-01-10T02:24:20;6.1;;;3.2;;
36833;SDS011;48003;52.084;5.224;2024-01-10T02:25:56;6.2;;;3.2;;
36833;SDS011;48003;52.084;5.224;2024-01-10T02:29:09;5.4;;;3.2;;
36833;SDS011;48003;52.084;5.224;2024-01-10T02:30:47;6.3;;;3.3;;
36833;SDS011;48003;52.084;5.224;2024-01-10T02:32:23;5.4;;;2.9;;
36833;SDS011;48003;52.084;5.224;2024-01-10T02:34:02;5.11;;;2.8;;
36833;SDS011;48003;52.084;5.224;2024-01-10T02:37:14;6.7;;;3.3;;
36833;SDS011;48003;52.084;5.224;2024-01-10T02:38:50;6.4;;;3.4;;
36833;SDS011;48003;52.084;5.224;2024-01-10T02:40:26;6.0;;;3.4;;
36833;SDS011;48003;52.084;5.224;2024-01-10T02:43:39;7.0;;;3.1;;
36833;SDS011;48003;52.084;5.224;2024-01-10T02:45:14;7.6;;;3.5;;
36833;SDS011;48003;52.084;5.224;2024-01-10T02:46:50;5.5;;;3.1;;
36833;SDS011;48003;52.084;5.224;2024-01-10T02:50:03;8.6;;;3.7;;
36833;SDS011;48003;52.084;5.224;2024-01-10T02:51:40;5.5;;;3.2;;
36833;SDS011;48003;52.084;5.224;2024-01-10T02:53:16;5.8;;;3.5;;
36833;SDS011;48003;52.084;5.224;2024-01-10T02:56:28;7.1;;;3.3;;
36833;SDS011;48003;52.084;5.224;2024-01-10T02:58:04;7.8;;;3.6;;
36833;SDS011;48003;52.084;5.224;2024-01-10T02:59:40;6.4;;;3.1;;
36833;SDS011;48003;52.084;5.224;2024-01-10T03:01:16;6.2;;;3.3;;
36833;SDS011;48003;52.084;5.224;2024-01-10T03:04:29;6.8;;;3.1;;
36833;SDS011;48003;52.084;5.224;2024-01-10T03:06:05;6.9;;;3.5;;
36833;SDS011;48003;52.084;5.224;2024-01-10T03:07:41;6.6;;;3.6;;
36833;SDS011;48003;52.084;5.224;2024-01-10T03:10:53;5.8;;;3.3;;
36833;SDS011;48003;52.084;5.224;2024-01-10T03:12:29;7.2;;;3.5;;
36833;SDS011;48003;52.084;5.224;2024-01-10T03:14:09;7.3;;;3.1;;
36833;SDS011;48003;52.084;5.224;2024-01-10T03:17:22;7.0;;;3.5;;
36833;SDS011;48003;52.084;5.224;2024-01-10T03:18:58;5.7;;;3.4;;
36833;SDS011;48003;52.084;5.224;2024-01-10T03:20:36;6.3;;;3.4;;
36833;SDS011;48003;52.084;5.224;2024-01-10T03:25:24;5.5;;;3.3;;
36833;SDS011;48003;52.084;5.224;2024-01-10T03:27:00;7.1;;;3.4;;
36833;SDS011;48003;52.084;5.224;2024-01-10T03:28:36;8.2;;;3.7;;
36833;SDS011;48003;52.084;5.224;2024-01-10T03:31:48;5.7;;;3.7;;
36833;SDS011;48003;52.084;5.224;2024-01-10T03:33:24;6.7;;;3.6;;
36833;SDS011;48003;52.084;5.224;2024-01-10T03:35:00;7.0;;;3.6;;
36833;SDS011;48003;52.084;5.224;2024-01-10T03:38:12;7.9;;;3.9;;
36833;SDS011;48003;52.084;5.224;2024-01-10T03:39:49;7.0;;;3.8;;
36833;SDS011;48003;52.084;5.224;2024-01-10T03:41:25;8.4;;;4.2;;
36833;SDS011;48003;52.084;5.224;2024-01-10T03:43:01;6.2;;;3.5;;
36833;SDS011;48003;52.084;5.224;2024-01-10T03:46:14;7.1;;;3.6;;
36833;SDS011;48003;52.084;5.224;2024-01-10T03:47:51;6.7;;;3.6;;
36833;SDS011;48003;52.084;5.224;2024-01-10T03:49:27;6.5;;;3.4;;
36833;SDS011;48003;52.084;5.224;2024-01-10T03:52:39;8.1;;;3.9;;
36833;SDS011;48003;52.084;5.224;2024-01-10T03:54:15;7.5;;;3.4;;
36833;SDS011;48003;52.084;5.224;2024-01-10T03:55:51;7.6;;;3.5;;
36833;SDS011;48003;52.084;5.224;2024-01-10T03:59:09;6.2;;;3.6;;
36833;SDS011;48003;52.084;5.224;2024-01-10T04:00:45;6.8;;;3.6;;
36833;SDS011;48003;52.084;5.224;2024-01-10T04:02:21;7.3;;;4.0;;
36833;SDS011;48003;52.084;5.224;2024-01-10T04:03:57;7.1;;;3.3;;
36833;SDS011;48003;52.084;5.224;2024-01-10T04:07:09;6.7;;;3.8;;
36833;SDS011;48003;52.084;5.224;2024-01-10T04:08:45;7.2;;;3.7;;
36833;SDS011;48003;52.084;5.224;2024-01-10T04:10:21;6.6;;;3.9;;
36833;SDS011;48003;52.084;5.224;2024-01-10T04:13:34;8.0;;;4.1;;
36833;SDS011;48003;52.084;5.224;2024-01-10T04:15:10;6.8;;;3.5;;
36833;SDS011;48003;52.084;5.224;2024-01-10T04:16:47;6.9;;;3.5;;
36833;SDS011;48003;52.084;5.224;2024-01-10T04:19:59;7.9;;;3.7;;
36833;SDS011;48003;52.084;5.224;2024-01-10T04:21:35;6.4;;;3.6;;
36833;SDS011;48003;52.084;5.224;2024-01-10T04:23:11;7.4;;;3.5;;
36833;SDS011;48003;52.084;5.224;2024-01-10T04:26:23;7.3;;;3.9;;
36833;SDS011;48003;52.084;5.224;2024-01-10T04:27:59;6.7;;;3.5;;
36833;SDS011;48003;52.084;5.224;2024-01-10T04:29:35;6.8;;;3.9;;
36833;SDS011;48003;52.084;5.224;2024-01-10T04:31:12;6.7;;;3.6;;
36833;SDS011;48003;52.084;5.224;2024-01-10T04:34:25;6.9;;;3.6;;
36833;SDS011;48003;52.084;5.224;2024-01-10T04:36:01;6.6;;;3.5;;
36833;SDS011;48003;52.084;5.224;2024-01-10T04:37:37;7.5;;;3.8;;
36833;SDS011;48003;52.084;5.224;2024-01-10T04:40:49;7.1;;;3.8;;
36833;SDS011;48003;52.084;5.224;2024-01-10T04:42:25;7.8;;;3.7;;
36833;SDS011;48003;52.084;5.224;2024-01-10T04:44:01;7.1;;;3.7;;
36833;SDS011;48003;52.084;5.224;2024-01-10T04:47:13;7.5;;;3.6;;
36833;SDS011;48003;52.084;5.224;2024-01-10T04:48:49;7.1;;;3.6;;
36833;SDS011;48003;52.084;5.224;2024-01-10T04:50:25;7.9;;;4.1;;
36833;SDS011;48003;52.084;5.224;2024-01-10T04:53:37;8.4;;;3.6;;
36833;SDS011;48003;52.084;5.224;2024-01-10T04:55:13;6.4;;;3.6;;
36833;SDS011;48003;52.084;5.224;2024-01-10T04:56:49;7.6;;;4.0;;
36833;SDS011;48003;52.084;5.224;2024-01-10T04:58:25;7.9;;;3.9;;
36833;SDS011;48003;52.084;5.224;2024-01-10T05:01:37;6.7;;;3.5;;
36833;SDS011;48003;52.084;5.224;2024-01-10T05:03:13;7.0;;;3.7;;
36833;SDS011;48003;52.084;5.224;2024-01-10T05:04:49;7.3;;;3.8;;
36833;SDS011;48003;52.084;5.224;2024-01-10T05:08:02;6.4;;;3.5;;
36833;SDS011;48003;52.084;5.224;2024-01-10T05:09:38;7.0;;;3.7;;
36833;SDS011;48003;52.084;5.224;2024-01-10T05:11:14;8.0;;;3.7;;
36833;SDS011;48003;52.084;5.224;2024-01-10T05:14:27;6.9;;;3.6;;
36833;SDS011;48003;52.084;5.224;2024-01-10T05:16:03;6.1;;;3.7;;
36833;SDS011;48003;52.084;5.224;2024-01-10T05:17:40;7.2;;;3.8;;
36833;SDS011;48003;52.084;5.224;2024-01-10T05:19:16;6.6;;;4.0;;
36833;SDS011;48003;52.084;5.224;2024-01-10T05:22:28;6.5;;;3.6;;
36833;SDS011;48003;52.084;5.224;2024-01-10T05:24:05;8.81;;;3.9;;
36833;SDS011;48003;52.084;5.224;2024-01-10T05:25:41;7.7;;;3.9;;
36833;SDS011;48003;52.084;5.224;2024-01-10T05:28:53;7.2;;;3.8;;
36833;SDS011;48003;52.084;5.224;2024-01-10T05:30:29;7.0;;;3.7;;
36833;SDS011;48003;52.084;5.224;2024-01-10T05:32:05;7.3;;;3.8;;
36833;SDS011;48003;52.084;5.224;2024-01-10T05:35:17;8.31;;;4.1;;
36833;SDS011;48003;52.084;5.224;2024-01-10T05:36:53;7.2;;;3.8;;
36833;SDS011;48003;52.084;5.224;2024-01-10T05:38:30;6.9;;;3.8;;
36833;SDS011;48003;52.084;5.224;2024-01-10T05:41:43;7.0;;;3.8;;
36833;SDS011;48003;52.084;5.224;2024-01-10T05:43:19;6.8;;;4.0;;
36833;SDS011;48003;52.084;5.224;2024-01-10T05:44:55;8.4;;;4.2;;
36833;SDS011;48003;52.084;5.224;2024-01-10T05:46:31;7.7;;;3.4;;
36833;SDS011;48003;52.084;5.224;2024-01-10T05:49:43;7.2;;;3.8;;
36833;SDS011;48003;52.084;5.224;2024-01-10T05:51:19;7.8;;;4.0;;
36833;SDS011;48003;52.084;5.224;2024-01-10T05:52:56;7.6;;;4.0;;
36833;SDS011;48003;52.084;5.224;2024-01-10T05:56:08;6.0;;;3.7;;
36833;SDS011;48003;52.084;5.224;2024-01-10T05:57:47;8.81;;;3.8;;
36833;SDS011;48003;52.084;5.224;2024-01-10T05:59:23;9.0;;;4.1;;
36833;SDS011;48003;52.084;5.224;2024-01-10T06:02:35;7.0;;;3.8;;
36833;SDS011;48003;52.084;5.224;2024-01-10T06:04:11;7.4;;;4.1;;
36833;SDS011;48003;52.084;5.224;2024-01-10T06:05:47;6.9;;;4.0;;
36833;SDS011;48003;52.084;5.224;2024-01-10T06:07:23;8.9;;;4.2;;
36833;SDS011;48003;52.084;5.224;2024-01-10T06:10:35;8.0;;;4.1;;
36833;SDS011;48003;52.084;5.224;2024-01-10T06:12:12;7.2;;;3.7;;
36833;SDS011;48003;52.084;5.224;2024-01-10T06:13:48;7.9;;;4.2;;
36833;SDS011;48003;52.084;5.224;2024-01-10T06:17:00;7.9;;;4.0;;
36833;SDS011;48003;52.084;5.224;2024-01-10T06:18:36;10.0;;;4.3;;
36833;SDS011;48003;52.084;5.224;2024-01-10T06:20:12;9.5;;;4.61;;
36833;SDS011;48003;52.084;5.224;2024-01-10T06:23:24;8.71;;;4.7;;
36833;SDS011;48003;52.084;5.224;2024-01-10T06:25:00;7.7;;;4.2;;
36833;SDS011;48003;52.084;5.224;2024-01-10T06:26:36;11.3;;;4.2;;
36833;SDS011;48003;52.084;5.224;2024-01-10T06:29:49;9.4;;;4.2;;
36833;SDS011;48003;52.084;5.224;2024-01-10T06:31:24;7.1;;;4.1;;
36833;SDS011;48003;52.084;5.224;2024-01-10T06:33:00;8.1;;;4.3;;
36833;SDS011;48003;52.084;5.224;2024-01-10T06:34:36;8.4;;;4.61;;
36833;SDS011;48003;52.084;5.224;2024-01-10T06:37:48;8.81;;;4.8;;
36833;SDS011;48003;52.084;5.224;2024-01-10T06:39:24;7.7;;;4.3;;
36833;SDS011;48003;52.084;5.224;2024-01-10T06:41:00;9.9;;;4.41;;
36833;SDS011;48003;52.084;5.224;2024-01-10T06:44:12;7.2;;;4.2;;
36833;SDS011;48003;52.084;5.224;2024-01-10T06:45:49;7.7;;;4.2;;
36833;SDS011;48003;52.084;5.224;2024-01-10T06:47:25;8.81;;;4.61;;
36833;SDS011;48003;52.084;5.224;2024-01-10T06:50:37;7.9;;;4.8;;
36833;SDS011;48003;52.084;5.224;2024-01-10T06:52:13;9.31;;;5.11;;
36833;SDS011;48003;52.084;5.224;2024-01-10T06:53:49;9.81;;;5.2;;
36833;SDS011;48003;52.084;5.224;2024-01-10T06:57:02;9.5;;;4.91;;
36833;SDS011;48003;52.084;5.224;2024-01-10T06:58:38;9.0;;;4.8;;
36833;SDS011;48003;52.084;5.224;2024-01-10T07:00:15;8.9;;;5.11;;
36833;SDS011;48003;52.084;5.224;2024-01-10T07:01:52;8.1;;;4.61;;
36833;SDS011;48003;52.084;5.224;2024-01-10T07:05:09;12.0;;;5.3;;
36833;SDS011;48003;52.084;5.224;2024-01-10T07:06:45;8.5;;;4.3;;
36833;SDS011;48003;52.084;5.224;2024-01-10T07:08:21;7.8;;;4.5;;
36833;SDS011;48003;52.084;5.224;2024-01-10T07:11:33;9.4;;;5.4;;
36833;SDS011;48003;52.084;5.224;2024-01-10T07:13:09;9.9;;;4.7;;
36833;SDS011;48003;52.084;5.224;2024-01-10T07:14:45;9.21;;;4.91;;
36833;SDS011;48003;52.084;5.224;2024-01-10T07:17:57;10.3;;;5.5;;
36833;SDS011;48003;52.084;5.224;2024-01-10T07:19:33;9.21;;;5.6;;
36833;SDS011;48003;52.084;5.224;2024-01-10T07:21:10;10.6;;;5.3;;
36833;SDS011;48003;52.084;5.224;2024-01-10T07:22:46;11.1;;;5.7;;
36833;SDS011;48003;52.084;5.224;2024-01-10T07:25:58;10.4;;;5.4;;
36833;SDS011;48003;52.084;5.224;2024-01-10T07:27:37;9.1;;;5.3;;
36833;SDS011;48003;52.084;5.224;2024-01-10T07:29:13;10.6;;;5.2;;
36833;SDS011;48003;52.084;5.224;2024-01-10T07:32:25;8.71;;;5.0;;
36833;SDS011;48003;52.084;5.224;2024-01-10T07:34:01;9.6;;;5.0;;
36833;SDS011;48003;52.084;5.224;2024-01-10T07:35:38;8.4;;;4.7;;
36833;SDS011;48003;52.084;5.224;2024-01-10T07:38:50;11.9;;;4.7;;
36833;SDS011;48003;52.084;5.224;2024-01-10T07:40:26;9.9;;;4.91;;
36833;SDS011;48003;52.084;5.224;2024-01-10T07:42:02;9.6;;;5.3;;
36833;SDS011;48003;52.084;5.224;2024-01-10T07:43:39;8.5;;;4.91;;
36833;SDS011;48003;52.084;5.224;2024-01-10T07:46:51;11.6;;;4.91;;
36833;SDS011;48003;52.084;5.224;2024-01-10T07:48:27;9.9;;;4.91;;
36833;SDS011;48003;52.084;5.224;2024-01-10T07:50:04;11.2;;;5.2;;
36833;SDS011;48003;52.084;5.224;2024-01-10T07:53:16;9.4;;;5.0;;
36833;SDS011;48003;52.084;5.224;2024-01-10T07:54:53;10.7;;;5.2;;
36833;SDS011;48003;52.084;5.224;2024-01-10T07:56:29;9.71;;;4.91;;
36833;SDS011;48003;52.084;5.224;2024-01-10T07:59:42;10.1;;;5.0;;
36833;SDS011;48003;52.084;5.224;2024-01-10T08:01:18;9.71;;;5.3;;
36833;SDS011;48003;52.084;5.224;2024-01-10T08:02:54;10.0;;;5.2;;
36833;SDS011;48003;52.084;5.224;2024-01-10T08:06:06;10.7;;;4.91;;
36833;SDS011;48003;52.084;5.224;2024-01-10T08:07:42;8.9;;;5.11;;
36833;SDS011;48003;52.084;5.224;2024-01-10T08:09:18;13.8;;;7.0;;
36833;SDS011;48003;52.084;5.224;2024-01-10T08:10:55;10.9;;;5.7;;
36833;SDS011;48003;52.084;5.224;2024-01-10T08:14:11;9.71;;;5.0;;
36833;SDS011;48003;52.084;5.224;2024-01-10T08:15:47;11.3;;;5.4;;
36833;SDS011;48003;52.084;5.224;2024-01-10T08:17:23;9.21;;;5.4;;
36833;SDS011;48003;52.084;5.224;2024-01-10T08:20:35;8.5;;;5.0;;
36833;SDS011;48003;52.084;5.224;2024-01-10T08:22:11;9.0;;;4.8;;
36833;SDS011;48003;52.084;5.224;2024-01-10T08:23:47;8.71;;;4.61;;
36833;SDS011;48003;52.084;5.224;2024-01-10T08:26:59;8.0;;;4.41;;
36833;SDS011;48003;52.084;5.224;2024-01-10T08:28:35;10.0;;;5.0;;
36833;SDS011;48003;52.084;5.224;2024-01-10T08:30:12;9.1;;;4.91;;
36833;SDS011;48003;52.084;5.224;2024-01-10T08:31:48;10.3;;;4.61;;
36833;SDS011;48003;52.084;5.224;2024-01-10T08:35:00;9.6;;;4.7;;
36833;SDS011;48003;52.084;5.224;2024-01-10T08:36:36;11.4;;;4.8;;
36833;SDS011;48003;52.084;5.224;2024-01-10T08:38:12;9.4;;;4.5;;
36833;SDS011;48003;52.084;5.224;2024-01-10T08:41:24;11.5;;;4.91;;
36833;SDS011;48003;52.084;5.224;2024-01-10T08:43:01;9.71;;;4.8;;
36833;SDS011;48003;52.084;5.224;2024-01-10T08:44:36;10.8;;;5.2;;
36833;SDS011;48003;52.084;5.224;2024-01-10T08:47:49;9.0;;;4.8;;
36833;SDS011;48003;52.084;5.224;2024-01-10T08:49:25;11.4;;;5.3;;
36833;SDS011;48003;52.084;5.224;2024-01-10T08:51:01;8.81;;;4.7;;
36833;SDS011;48003;52.084;5.224;2024-01-10T08:54:13;10.0;;;4.8;;
36833;SDS011;48003;52.084;5.224;2024-01-10T08:55:49;10.0;;;5.0;;
36833;SDS011;48003;52.084;5.224;2024-01-10T08:57:25;11.8;;;4.61;;
36833;SDS011;48003;52.084;5.224;2024-01-10T08:59:01;10.4;;;5.0;;
36833;SDS011;48003;52.084;5.224;2024-01-10T09:02:13;10.0;;;4.5;;
36833;SDS011;48003;52.084;5.224;2024-01-10T09:03:50;10.21;;;4.61;;
36833;SDS011;48003;52.084;5.224;2024-01-10T09:05:27;9.1;;;4.91;;
36833;SDS011;48003;52.084;5.224;2024-01-10T09:08:39;8.4;;;4.5;;
36833;SDS011;48003;52.084;5.224;2024-01-10T09:10:15;11.1;;;5.11;;
36833;SDS011;48003;52.084;5.224;2024-01-10T09:11:51;11.1;;;5.11;;
36833;SDS011;48003;52.084;5.224;2024-01-10T09:15:03;7.8;;;4.61;;
36833;SDS011;48003;52.084;5.224;2024-01-10T09:16:40;9.21;;;4.91;;
36833;SDS011;48003;52.084;5.224;2024-01-10T09:18:16;9.6;;;5.0;;
36833;SDS011;48003;52.084;5.224;2024-01-10T09:19:53;11.2;;;5.6;;
36833;SDS011;48003;52.084;5.224;2024-01-10T09:23:05;10.3;;;5.2;;
36833;SDS011;48003;52.084;5.224;2024-01-10T09:24:41;9.5;;;4.91;;
36833;SDS011;48003;52.084;5.224;2024-01-10T09:26:17;8.5;;;4.91;;
36833;SDS011;48003;52.084;5.224;2024-01-10T09:29:30;10.4;;;4.8;;
36833;SDS011;48003;52.084;5.224;2024-01-10T09:31:06;9.31;;;4.8;;
36833;SDS011;48003;52.084;5.224;2024-01-10T09:32:42;8.4;;;4.91;;
36833;SDS011;48003;52.084;5.224;2024-01-10T09:35:54;8.9;;;4.91;;
36833;SDS011;48003;52.084;5.224;2024-01-10T09:37:30;8.81;;;4.91;;
36833;SDS011;48003;52.084;5.224;2024-01-10T09:39:07;10.0;;;4.8;;
36833;SDS011;48003;52.084;5.224;2024-01-10T09:42:19;7.8;;;4.3;;
36833;SDS011;48003;52.084;5.224;2024-01-10T09:43:55;10.1;;;4.7;;
36833;SDS011;48003;52.084;5.224;2024-01-10T09:45:31;8.0;;;4.5;;
36833;SDS011;48003;52.084;5.224;2024-01-10T09:47:11;8.9;;;4.91;;
36833;SDS011;48003;52.084;5.224;2024-01-10T09:50:26;10.21;;;4.91;;
36833;SDS011;48003;52.084;5.224;2024-01-10T09:52:03;8.5;;;4.91;;
36833;SDS011;48003;52.084;5.224;2024-01-10T09:53:44;11.0;;;5.11;;
36833;SDS011;48003;52.084;5.224;2024-01-10T09:55:24;9.1;;;5.11;;
36833;SDS011;48003;52.084;5.224;2024-01-10T09:58:44;13.1;;;5.0;;
36833;SDS011;48003;52.084;5.224;2024-01-10T10:00:24;11.6;;;5.0;;
36833;SDS011;48003;52.084;5.224;2024-01-10T10:02:01;10.0;;;4.91;;
36833;SDS011;48003;52.084;5.224;2024-01-10T10:05:21;10.21;;;4.91;;
36833;SDS011;48003;52.084;5.224;2024-01-10T10:07:01;8.5;;;4.8;;
36833;SDS011;48003;52.084;5.224;2024-01-10T10:08:37;10.0;;;5.2;;
36833;SDS011;48003;52.084;5.224;2024-01-10T10:10:13;9.6;;;4.7;;
36833;SDS011;48003;52.084;5.224;2024-01-10T10:13:29;9.5;;;5.3;;
36833;SDS011;48003;52.084;5.224;2024-01-10T10:15:08;10.8;;;5.2;;
36833;SDS011;48003;52.084;5.224;2024-01-10T10:16:47;12.2;;;5.5;;
36833;SDS011;48003;52.084;5.224;2024-01-10T10:20:01;9.9;;;4.7;;
36833;SDS011;48003;52.084;5.224;2024-01-10T10:21:39;10.6;;;5.11;;
36833;SDS011;48003;52.084;5.224;2024-01-10T10:23:15;9.81;;;5.2;;
36833;SDS011;48003;52.084;5.224;2024-01-10T10:24:53;10.7;;;5.3;;
36833;SDS011;48003;52.084;5.224;2024-01-10T10:28:08;10.9;;;5.2;;
36833;SDS011;48003;52.084;5.224;2024-01-10T10:29:44;9.31;;;5.0;;
36833;SDS011;48003;52.084;5.224;2024-01-10T10:31:20;9.1;;;4.91;;
36833;SDS011;48003;52.084;5.224;2024-01-10T10:34:33;10.6;;;5.4;;
36833;SDS011;48003;52.084;5.224;2024-01-10T10:36:09;10.21;;;5.2;;
36833;SDS011;48003;52.084;5.224;2024-01-10T10:37:47;8.9;;;5.11;;
36833;SDS011;48003;52.084;5.224;2024-01-10T10:39:25;10.3;;;5.3;;
36833;SDS011;48003;52.084;5.224;2024-01-10T10:42:44;9.81;;;5.5;;
36833;SDS011;48003;52.084;5.224;2024-01-10T10:44:23;12.4;;;5.7;;
36833;SDS011;48003;52.084;5.224;2024-01-10T10:46:00;9.81;;;5.11;;
36833;SDS011;48003;52.084;5.224;2024-01-10T10:49:16;12.5;;;5.4;;
36833;SDS011;48003;52.084;5.224;2024-01-10T10:51:03;10.5;;;4.91;;
36833;SDS011;48003;52.084;5.224;2024-01-10T10:52:41;9.81;;;5.2;;
36833;SDS011;48003;52.084;5.224;2024-01-10T10:54:21;12.2;;;5.7;;
36833;SDS011;48003;52.084;5.224;2024-01-10T10:57:36;12.0;;;6.1;;
36833;SDS011;48003;52.084;5.224;2024-01-10T10:59:14;11.3;;;5.6;;
36833;SDS011;48003;52.084;5.224;2024-01-10T11:00:55;10.9;;;5.6;;
36833;SDS011;48003;52.084;5.224;2024-01-10T11:02:32;10.6;;;5.7;;
36833;SDS011;48003;52.084;5.224;2024-01-10T11:05:46;12.1;;;5.3;;
36833;SDS011;48003;52.084;5.224;2024-01-10T11:07:22;9.9;;;5.7;;
36833;SDS011;48003;52.084;5.224;2024-01-10T11:08:59;11.2;;;5.4;;
36833;SDS011;48003;52.084;5.224;2024-01-10T11:12:23;12.1;;;5.5;;
36833;SDS011;48003;52.084;5.224;2024-01-10T11:14:15;10.3;;;5.7;;
36833;SDS011;48003;52.084;5.224;2024-01-10T11:16:13;14.0;;;6.2;;
36833;SDS011;48003;52.084;5.224;2024-01-10T11:18:10;11.1;;;5.5;;
36833;SDS011;48003;52.084;5.224;2024-01-10T11:20:06;9.71;;;5.5;;
36833;SDS011;48003;52.084;5.224;2024-01-10T11:22:10;10.8;;;5.4;;
36833;SDS011;48003;52.084;5.224;2024-01-10T11:24:00;11.2;;;5.3;;
36833;SDS011;48003;52.084;5.224;2024-01-10T11:25:38;12.4;;;5.8;;
36833;SDS011;48003;52.084;5.224;2024-01-10T11:28:52;10.7;;;5.5;;
36833;SDS011;48003;52.084;5.224;2024-01-10T11:30:33;11.0;;;5.6;;
36833;SDS011;48003;52.084;5.224;2024-01-10T11:32:12;10.7;;;5.3;;
36833;SDS011;48003;52.084;5.224;2024-01-10T11:33:50;11.1;;;6.0;;
36833;SDS011;48003;52.084;5.224;2024-01-10T11:37:09;14.5;;;5.6;;
36833;SDS011;48003;52.084;5.224;2024-01-10T11:38:48;12.4;;;5.9;;
36833;SDS011;48003;52.084;5.224;2024-01-10T11:40:45;11.6;;;5.4;;
36833;SDS011;48003;52.084;5.224;2024-01-10T11:42:23;12.2;;;6.0;;
36833;SDS011;48003;52.084;5.224;2024-01-10T11:46:23;13.0;;;6.3;;
36833;SDS011;48003;52.084;5.224;2024-01-10T11:49:36;10.4;;;5.7;;
36833;SDS011;48003;52.084;5.224;2024-01-10T11:51:12;12.1;;;6.0;;
36833;SDS011;48003;52.084;5.224;2024-01-10T11:52:52;14.8;;;6.4;;
36833;SDS011;48003;52.084;5.224;2024-01-10T11:56:21;14.8;;;6.4;;
36833;SDS011;48003;52.084;5.224;2024-01-10T11:58:03;8.81;;;5.2;;
36833;SDS011;48003;52.084;5.224;2024-01-10T11:59:44;11.0;;;5.7;;
36833;SDS011;48003;52.084;5.224;2024-01-10T12:01:22;13.4;;;5.7;;
36833;SDS011;48003;52.084;5.224;2024-01-10T12:04:35;12.0;;;5.5;;
36833;SDS011;48003;52.084;5.224;2024-01-10T12:06:11;13.3;;;5.6;;
36833;SDS011;48003;52.084;5.224;2024-01-10T12:07:50;9.6;;;5.2;;
36833;SDS011;48003;52.084;5.224;2024-01-10T12:09:26;11.4;;;5.8;;
36833;SDS011;48003;52.084;5.224;2024-01-10T12:12:39;13.3;;;5.7;;
36833;SDS011;48003;52.084;5.224;2024-01-10T12:14:15;10.8;;;5.5;;
36833;SDS011;48003;52.084;5.224;2024-01-10T12:15:52;11.6;;;6.1;;
36833;SDS011;48003;52.084;5.224;2024-01-10T12:19:04;9.9;;;5.4;;
36833;SDS011;48003;52.084;5.224;2024-01-10T12:20:41;12.2;;;5.7;;
36833;SDS011;48003;52.084;5.224;2024-01-10T12:22:17;9.9;;;5.4;;
36833;SDS011;48003;52.084;5.224;2024-01-10T12:25:29;10.21;;;5.5;;
36833;SDS011;48003;52.084;5.224;2024-01-10T12:27:05;10.7;;;5.7;;
36833;SDS011;48003;52.084;5.224;2024-01-10T12:28:41;11.3;;;5.6;;
36833;SDS011;48003;52.084;5.224;2024-01-10T12:30:30;11.1;;;5.5;;
36833;SDS011;48003;52.084;5.224;2024-01-10T12:33:43;11.0;;;5.8;;
36833;SDS011;48003;52.084;5.224;2024-01-10T12:35:20;10.1;;;5.7;;
36833;SDS011;48003;52.084;5.224;2024-01-10T12:36:55;9.71;;;6.0;;
36833;SDS011;48003;52.084;5.224;2024-01-10T12:40:09;10.1;;;5.9;;
36833;SDS011;48003;52.084;5.224;2024-01-10T12:41:46;11.6;;;6.0;;
36833;SDS011;48003;52.084;5.224;2024-01-10T12:43:23;10.4;;;5.8;;
36833;SDS011;48003;52.084;5.224;2024-01-10T12:44:59;10.0;;;5.5;;
36833;SDS011;48003;52.084;5.224;2024-01-10T12:48:13;12.0;;;6.2;;
36833;SDS011;48003;52.084;5.224;2024-01-10T12:49:49;12.6;;;6.1;;
36833;SDS011;48003;52.084;5.224;2024-01-10T12:51:26;13.2;;;6.1;;
36833;SDS011;48003;52.084;5.224;2024-01-10T12:54:39;9.9;;;5.4;;
36833;SDS011;48003;52.084;5.224;2024-01-10T12:56:16;13.9;;;5.4;;
36833;SDS011;48003;52.084;5.224;2024-01-10T12:57:52;11.5;;;5.9;;